Dagenham, United Kingdom
Current Conditions -  °F | °C
As of 10:50 PM on Tuesday 27 Jan 2015 (Local Time) from EGLC Reporting Station
Overcast Overcast  
Wind Chill: 40°   Ceiling: 2800
Heat Index: 45°   Visibility: 6mi
Dew Point: 36°   Wind: 9mph
Humidity: 71%   Direction: 240°WSW
Pressure: 30.15"   Gusts: NA
Location:  51.54°N, 0.15°E
Report Text: EGLC 272250Z AUTO 24008KT 9999 SCT022/// OVC028/// 07/02 Q1021
Loading
Personal Weather Stations






























Interactive Weather Map New forecast layout! Learn more

10-Day Weather Forecast

Advertisements
Track Severe Weather on mobile